createdAt,value
2018-07-19T00:03:29.507Z,59.00
2018-07-19T00:05:59.336Z,59.00
2018-07-19T00:08:29.279Z,58.70
2018-07-19T00:10:59.663Z,58.90
2018-07-19T00:13:29.713Z,60.20
2018-07-19T00:18:29.027Z,60.00
2018-07-19T00:20:58.943Z,61.20
2018-07-19T00:23:28.710Z,60.60
2018-07-19T00:25:58.756Z,61.10
2018-07-19T00:28:28.662Z,62.40
2018-07-19T00:30:58.556Z,61.60
2018-07-19T00:36:31.495Z,61.30
2018-07-19T00:39:01.233Z,61.30
2018-07-19T00:41:31.321Z,62.00
2018-07-19T00:44:01.214Z,61.90
2018-07-19T00:46:32.105Z,62.70
2018-07-19T00:49:01.862Z,62.20
2018-07-19T00:51:31.684Z,61.70
2018-07-19T00:54:01.534Z,63.20
2018-07-19T00:56:31.500Z,62.60
2018-07-19T01:01:30.692Z,64.40
2018-07-19T01:04:00.511Z,63.90
2018-07-19T01:06:30.391Z,63.20
2018-07-19T01:09:00.156Z,62.80
2018-07-19T01:11:30.193Z,63.30
2018-07-19T01:13:59.923Z,63.40
2018-07-19T01:18:59.611Z,64.90
2018-07-19T01:21:29.348Z,64.80
2018-07-19T01:24:04.883Z,65.10
2018-07-19T01:29:04.180Z,64.20
2018-07-19T01:31:33.977Z,63.40
2018-07-19T01:34:04.859Z,64.00
2018-07-19T01:36:38.081Z,62.70
2018-07-19T01:39:12.626Z,62.40
2018-07-19T01:42:20.740Z,63.20
2018-07-19T01:44:51.621Z,63.70
2018-07-19T01:47:23.368Z,65.00
2018-07-19T01:49:53.880Z,65.20
2018-07-19T01:52:26.060Z,65.40
2018-07-19T01:54:58.416Z,64.90
2018-07-19T01:57:29.863Z,65.50
2018-07-19T01:59:59.649Z,66.60
2018-07-19T02:02:33.155Z,65.80
2018-07-19T02:05:04.332Z,64.90
2018-07-19T02:07:37.399Z,64.50
2018-07-19T02:10:08.736Z,64.70
2018-07-19T02:12:39.552Z,66.20
2018-07-19T02:15:09.481Z,66.30
2018-07-19T02:17:40.383Z,65.90
2018-07-19T02:22:42.976Z,65.60
2018-07-19T02:25:14.201Z,65.90
2018-07-19T02:27:46.153Z,65.30
2018-07-19T02:30:19.208Z,65.30
2018-07-19T02:32:51.108Z,65.90
2018-07-19T02:35:22.238Z,65.60
2018-07-19T02:37:54.215Z,66.10
2018-07-19T02:40:25.954Z,66.50
2018-07-19T02:42:57.400Z,66.70
2018-07-19T02:45:29.408Z,67.60
2018-07-19T02:48:01.316Z,67.30
2018-07-19T02:50:31.643Z,66.80
2018-07-19T02:53:02.472Z,66.30
2018-07-19T02:55:34.975Z,66.10
2018-07-19T02:58:06.707Z,66.40
2018-07-19T03:05:42.932Z,66.90
2018-07-19T03:08:12.854Z,67.70
2018-07-19T03:10:44.277Z,67.20
2018-07-19T03:13:16.029Z,67.30
2018-07-19T03:15:45.896Z,67.30
2018-07-19T03:18:20.135Z,67.30
2018-07-19T03:20:52.519Z,67.90
2018-07-19T03:23:24.016Z,68.30
2018-07-19T03:25:53.985Z,67.60
2018-07-19T03:28:23.807Z,67.90
2018-07-19T03:30:53.804Z,67.40
2018-07-19T03:33:25.574Z,67.20
2018-07-19T03:35:55.441Z,68.00
2018-07-19T03:38:25.531Z,67.30
2018-07-19T03:40:55.502Z,67.30
2018-07-19T03:43:25.482Z,67.70
2018-07-19T03:45:55.703Z,67.80
2018-07-19T03:48:25.568Z,67.90
2018-07-19T03:50:55.293Z,68.30
2018-07-19T03:53:25.479Z,67.70
2018-07-19T03:55:55.275Z,67.80
2018-07-19T04:01:00.294Z,70.10
2018-07-19T04:03:30.212Z,69.90
2018-07-19T04:08:29.335Z,69.00
2018-07-19T04:10:59.860Z,68.90
2018-07-19T04:16:11.125Z,69.00
2018-07-19T04:18:41.133Z,68.50
2018-07-19T04:21:10.909Z,68.60
2018-07-19T04:23:41.229Z,68.30
2018-07-19T04:26:11.409Z,68.30
2018-07-19T04:28:41.289Z,68.80
2018-07-19T04:31:11.032Z,67.80
2018-07-19T04:33:40.787Z,68.30
2018-07-19T04:36:10.582Z,65.50
2018-07-19T04:38:41.344Z,65.20
2018-07-19T04:43:50.442Z,67.90
2018-07-19T04:46:20.799Z,67.30
2018-07-19T04:48:51.952Z,65.80
2018-07-19T04:51:21.777Z,66.80
2018-07-19T04:53:53.048Z,65.90
2018-07-19T04:56:22.809Z,68.20
2018-07-19T04:58:54.105Z,65.10
2018-07-19T05:01:24.449Z,66.00
2018-07-19T05:03:54.322Z,63.70
2018-07-19T05:06:24.098Z,63.70
2018-07-19T05:14:05.737Z,62.30
2018-07-19T05:16:36.003Z,62.60
2018-07-19T05:19:06.034Z,62.20
2018-07-19T05:21:35.789Z,61.20
2018-07-19T05:24:09.169Z,59.50
2018-07-19T05:26:40.104Z,58.80
2018-07-19T05:29:10.389Z,59.30
2018-07-19T05:31:40.402Z,60.60
2018-07-19T05:34:10.535Z,59.30
2018-07-19T05:36:40.364Z,58.70
2018-07-19T05:39:12.428Z,58.90
2018-07-19T05:41:42.701Z,58.20
2018-07-19T05:46:48.248Z,57.50
2018-07-19T05:49:18.102Z,57.70
2018-07-19T05:51:48.001Z,58.90
2018-07-19T05:54:17.916Z,57.60
2018-07-19T05:56:47.786Z,57.40
2018-07-19T05:59:17.739Z,56.00
2018-07-19T06:01:49.028Z,55.70
2018-07-19T06:04:18.910Z,56.10
2018-07-19T06:09:18.055Z,56.40
2018-07-19T06:11:47.782Z,55.40
2018-07-19T06:14:17.596Z,54.70
2018-07-19T06:16:49.468Z,55.00
2018-07-19T06:19:19.178Z,54.30
2018-07-19T06:21:48.842Z,54.50
2018-07-19T06:24:19.526Z,54.60
2018-07-19T06:26:57.087Z,53.60
2018-07-19T06:29:26.940Z,53.20
2018-07-19T06:31:57.828Z,54.50
2018-07-19T06:34:29.081Z,55.60
2018-07-19T06:36:59.253Z,56.20
2018-07-19T06:39:29.941Z,54.40
2018-07-19T06:42:00.448Z,53.30
2018-07-19T06:46:59.476Z,54.00
2018-07-19T06:49:30.027Z,52.30
2018-07-19T06:52:00.012Z,51.80
2018-07-19T06:54:30.032Z,51.80
2018-07-19T06:56:59.816Z,52.50
2018-07-19T06:59:29.723Z,52.60
2018-07-19T07:02:03.106Z,51.70
2018-07-19T07:04:33.399Z,51.30
2018-07-19T07:07:03.124Z,51.10
2018-07-19T07:09:32.833Z,50.90
2018-07-19T07:12:02.527Z,49.30
2018-07-19T07:14:32.591Z,50.00
2018-07-19T07:17:02.695Z,49.40
2018-07-19T07:22:01.818Z,49.80
2018-07-19T07:24:32.186Z,52.00
2018-07-19T07:27:01.935Z,48.90
2018-07-19T07:29:31.669Z,48.20
2018-07-19T07:32:01.429Z,49.00
2018-07-19T07:37:00.557Z,46.40
2018-07-19T07:39:30.434Z,47.00
2018-07-19T07:42:00.314Z,47.30
2018-07-19T07:44:30.063Z,45.80
2018-07-19T07:46:59.797Z,45.60
2018-07-19T07:49:29.513Z,45.80
2018-07-19T07:52:00.135Z,43.10
2018-07-19T07:54:30.463Z,43.80
2018-07-19T07:59:44.826Z,43.80
2018-07-19T08:02:15.054Z,43.00
2018-07-19T08:04:44.954Z,43.00
2018-07-19T08:07:15.248Z,44.60
2018-07-19T08:09:44.989Z,42.30
2018-07-19T08:12:14.645Z,42.90
2018-07-19T08:14:44.394Z,40.90
2018-07-19T08:17:14.232Z,43.50
2018-07-19T08:19:43.958Z,40.20
2018-07-19T08:22:13.911Z,41.40
2018-07-19T08:24:43.661Z,42.60
2018-07-19T08:27:13.364Z,40.90
2018-07-19T08:29:43.065Z,43.20
2018-07-19T08:32:12.951Z,38.50
2018-07-19T08:34:42.675Z,40.70
2018-07-19T08:37:12.432Z,39.40
2018-07-19T08:39:42.223Z,40.40
2018-07-19T08:42:11.921Z,39.40
2018-07-19T08:44:41.611Z,39.90
2018-07-19T08:47:14.466Z,39.00
2018-07-19T08:49:46.444Z,38.90
2018-07-19T08:52:17.041Z,39.10
2018-07-19T08:57:17.248Z,39.40
2018-07-19T08:59:46.949Z,40.10
2018-07-19T09:02:16.670Z,38.30
2018-07-19T09:04:47.936Z,37.50
2018-07-19T09:07:17.598Z,39.30
2018-07-19T09:09:47.315Z,38.00
2018-07-19T09:12:17.067Z,38.50
2018-07-19T09:14:47.445Z,39.30
2018-07-19T09:17:17.244Z,36.50
2018-07-19T09:19:47.239Z,37.50
2018-07-19T09:22:16.921Z,36.20
2018-07-19T09:24:46.766Z,37.10
2018-07-19T09:27:16.475Z,35.40
2018-07-19T09:32:21.368Z,36.30
2018-07-19T09:34:51.052Z,37.20
2018-07-19T09:42:31.513Z,35.80
2018-07-19T09:45:02.513Z,36.40
2018-07-19T09:47:33.141Z,35.60
2018-07-19T09:50:02.847Z,36.10
2018-07-19T09:52:32.480Z,34.20
2018-07-19T09:55:03.623Z,33.90
2018-07-19T09:57:33.357Z,32.50
2018-07-19T10:00:04.248Z,35.80
2018-07-19T10:02:33.923Z,33.20
2018-07-19T10:05:03.583Z,33.30
2018-07-19T10:07:33.277Z,33.50
2018-07-19T10:10:02.925Z,32.60
2018-07-19T10:12:32.576Z,31.50
2018-07-19T10:15:03.806Z,33.50
2018-07-19T10:17:33.477Z,34.50
2018-07-19T10:20:03.162Z,32.40
2018-07-19T10:22:32.781Z,30.50
2018-07-19T10:25:02.393Z,31.50
2018-07-19T10:27:32.091Z,31.20
2018-07-19T10:30:01.747Z,33.80
2018-07-19T10:32:31.415Z,30.70
2018-07-19T10:35:01.109Z,34.20
2018-07-19T10:37:30.771Z,32.50
2018-07-19T10:40:00.837Z,31.80
2018-07-19T10:42:30.714Z,30.60
2018-07-19T10:45:00.363Z,29.80
2018-07-19T10:49:59.275Z,31.40
2018-07-19T10:52:29.004Z,28.90
2018-07-19T10:54:59.653Z,29.50
2018-07-19T10:57:29.415Z,28.70
2018-07-19T10:59:59.172Z,30.90
2018-07-19T11:02:28.895Z,28.20
2018-07-19T11:04:58.552Z,29.60
2018-07-19T11:07:28.306Z,32.50
2018-07-19T11:09:58.054Z,29.10
2018-07-19T11:12:27.681Z,27.50
2018-07-19T11:14:57.421Z,28.40
2018-07-19T11:17:27.084Z,27.80
2018-07-19T11:19:56.750Z,28.60
2018-07-19T11:22:26.455Z,29.30
2018-07-19T11:30:07.084Z,30.40
2018-07-19T11:32:36.718Z,29.30
2018-07-19T11:35:06.392Z,28.10
2018-07-19T11:40:11.110Z,28.10
2018-07-19T11:42:40.725Z,27.90
2018-07-19T11:45:10.368Z,27.00
2018-07-19T11:52:46.737Z,27.20
2018-07-19T11:55:16.950Z,28.00
2018-07-19T11:57:46.901Z,28.00
2018-07-19T12:00:17.045Z,26.20
2018-07-19T12:02:46.932Z,27.30
2018-07-19T12:05:17.052Z,26.30
2018-07-19T12:10:16.837Z,27.40
2018-07-19T12:12:47.026Z,27.40
2018-07-19T12:15:17.164Z,27.30
2018-07-19T12:17:47.250Z,26.20
2018-07-19T12:20:17.122Z,27.50
2018-07-19T12:22:47.589Z,26.10
2018-07-19T12:25:17.576Z,27.80
2018-07-19T12:27:47.521Z,26.70
2018-07-19T12:30:17.585Z,27.00
2018-07-19T12:32:47.575Z,27.40
2018-07-19T12:35:17.692Z,27.40
2018-07-19T12:37:47.597Z,26.10
2018-07-19T12:40:18.118Z,27.50
2018-07-19T12:42:47.983Z,27.70
2018-07-19T12:45:17.855Z,26.30
2018-07-19T12:47:47.740Z,25.30
2018-07-19T12:50:17.691Z,28.70
2018-07-19T12:52:47.801Z,28.20
2018-07-19T12:55:17.857Z,28.10
2018-07-19T12:57:47.820Z,26.20
2018-07-19T13:00:17.862Z,25.50
2018-07-19T13:02:47.777Z,26.00
2018-07-19T13:05:17.951Z,26.30
2018-07-19T13:07:47.929Z,27.00
2018-07-19T13:10:18.023Z,25.80
2018-07-19T13:12:47.964Z,27.50
2018-07-19T13:15:18.019Z,25.60
2018-07-19T13:17:47.951Z,27.50
2018-07-19T13:20:18.039Z,25.30
2018-07-19T13:22:47.981Z,27.80
2018-07-19T13:25:18.021Z,28.30
2018-07-19T13:27:47.978Z,27.10
2018-07-19T13:30:17.991Z,27.10
2018-07-19T13:32:48.119Z,26.40
2018-07-19T13:35:18.477Z,26.50
2018-07-19T13:37:49.152Z,26.30
2018-07-19T13:40:19.023Z,26.60
2018-07-19T13:42:48.781Z,26.30
2018-07-19T13:45:18.632Z,25.70
2018-07-19T13:47:48.415Z,24.70
2018-07-19T13:50:18.356Z,24.30
2018-07-19T13:52:59.553Z,24.90
2018-07-19T13:55:29.356Z,25.50
2018-07-19T13:57:59.067Z,27.30
2018-07-19T14:00:28.824Z,24.70
2018-07-19T14:02:58.699Z,26.20
2018-07-19T14:05:28.326Z,26.20
2018-07-19T14:07:58.106Z,25.70
2018-07-19T14:10:27.961Z,23.50
2018-07-19T14:12:57.648Z,25.20
2018-07-19T14:15:27.481Z,27.30
2018-07-19T14:17:57.264Z,25.30
2018-07-19T14:20:26.963Z,24.90
2018-07-19T14:22:56.625Z,25.60
2018-07-19T14:25:26.449Z,24.80
2018-07-19T14:27:56.298Z,25.60
2018-07-19T14:30:26.010Z,26.00
2018-07-19T14:32:55.706Z,25.00
2018-07-19T14:35:25.424Z,25.00
2018-07-19T14:37:55.169Z,24.10
2018-07-19T14:40:25.993Z,26.60
2018-07-19T14:42:55.814Z,24.80
2018-07-19T14:45:25.516Z,24.70
2018-07-19T14:47:55.318Z,25.50
2018-07-19T14:50:25.080Z,25.80
2018-07-19T14:52:54.812Z,25.80
2018-07-19T15:00:23.122Z,26.80
2018-07-19T15:02:53.216Z,26.00
2018-07-19T15:05:22.928Z,26.60
2018-07-19T15:07:52.593Z,25.50
2018-07-19T15:10:22.263Z,24.80
2018-07-19T15:12:51.891Z,24.70
2018-07-19T15:15:21.702Z,24.90
2018-07-19T15:17:51.456Z,25.70
2018-07-19T15:20:21.144Z,24.50
2018-07-19T15:22:52.231Z,25.60
2018-07-19T15:25:22.015Z,26.20
2018-07-19T15:27:51.730Z,25.80
2018-07-19T15:30:21.445Z,26.20
2018-07-19T15:32:51.560Z,27.10
2018-07-19T15:35:22.331Z,24.80
2018-07-19T15:37:52.073Z,26.30
2018-07-19T15:40:22.601Z,25.10
2018-07-19T15:42:53.123Z,24.20
2018-07-19T15:45:22.956Z,26.70
2018-07-19T15:47:54.189Z,25.40
2018-07-19T15:50:23.992Z,25.80
2018-07-19T15:52:53.683Z,26.00
2018-07-19T15:55:23.412Z,25.10
2018-07-19T16:00:23.289Z,24.60
2018-07-19T16:02:53.107Z,24.30
2018-07-19T16:05:23.073Z,24.60
2018-07-19T16:07:52.796Z,24.50
2018-07-19T16:12:51.760Z,25.70
2018-07-19T16:15:21.436Z,25.10
2018-07-19T16:17:51.228Z,26.00
2018-07-19T16:20:20.875Z,25.90
2018-07-19T16:22:50.537Z,25.50
2018-07-19T16:25:20.320Z,26.40
2018-07-19T16:27:50.069Z,25.10
2018-07-19T16:30:19.836Z,26.30
2018-07-19T16:32:49.556Z,25.10
2018-07-19T16:35:19.254Z,27.60
2018-07-19T16:37:52.645Z,24.60
2018-07-19T16:40:22.299Z,25.40
2018-07-19T16:42:53.837Z,25.00
2018-07-19T16:45:23.536Z,25.90
2018-07-19T16:47:53.483Z,25.20
2018-07-19T16:50:23.358Z,26.20
2018-07-19T16:52:59.733Z,26.40
2018-07-19T16:55:29.498Z,26.70
2018-07-19T16:57:59.208Z,28.30
2018-07-19T17:00:30.743Z,26.00
2018-07-19T17:03:00.994Z,27.40
2018-07-19T17:05:30.713Z,25.90
2018-07-19T17:08:00.389Z,28.10
2018-07-19T17:10:30.160Z,27.60
2018-07-19T17:12:59.982Z,28.50
2018-07-19T17:15:29.939Z,26.80
2018-07-19T17:17:59.721Z,24.80
2018-07-19T17:20:30.308Z,25.10
2018-07-19T17:23:00.558Z,23.10
2018-07-19T17:25:30.311Z,23.10
2018-07-19T17:28:00.161Z,24.40
2018-07-19T17:30:29.904Z,27.90
2018-07-19T17:32:59.653Z,28.50
2018-07-19T17:35:29.525Z,27.00
2018-07-19T17:37:59.261Z,29.20
2018-07-19T17:40:34.975Z,29.30
2018-07-19T17:43:04.728Z,29.90
2018-07-19T17:45:34.549Z,28.80
2018-07-19T17:48:04.434Z,29.90
2018-07-19T17:50:34.204Z,29.70
2018-07-19T17:53:04.069Z,29.40
2018-07-19T17:55:33.992Z,31.20
2018-07-19T17:58:03.870Z,32.30
2018-07-19T18:00:34.236Z,32.20
2018-07-19T18:03:04.116Z,33.10
2018-07-19T18:05:34.247Z,33.80
2018-07-19T18:08:04.003Z,33.90
2018-07-19T18:10:33.799Z,34.60
2018-07-19T18:13:03.664Z,34.10
2018-07-19T18:15:33.484Z,33.10
2018-07-19T18:18:03.478Z,36.10
2018-07-19T18:23:26.577Z,36.20
2018-07-19T18:25:56.423Z,34.60
2018-07-19T18:28:26.135Z,35.20
2018-07-19T18:30:56.686Z,36.40
2018-07-19T18:36:01.442Z,37.70
2018-07-19T18:38:31.273Z,37.40
2018-07-19T18:43:36.028Z,37.90
2018-07-19T18:46:05.823Z,37.60
2018-07-19T18:48:35.619Z,39.40
2018-07-19T18:53:41.964Z,38.90
2018-07-19T18:56:11.741Z,39.20
2018-07-19T18:58:41.668Z,38.30
2018-07-19T19:01:12.269Z,40.20
2018-07-19T19:03:42.075Z,39.80
2018-07-19T19:06:19.044Z,40.50
2018-07-19T19:08:42.827Z,39.70
2018-07-19T19:11:12.826Z,41.40
2018-07-19T19:13:42.914Z,40.20
2018-07-19T19:16:13.660Z,41.60
2018-07-19T19:18:53.298Z,42.70
2018-07-19T19:21:23.044Z,41.30
2018-07-19T19:23:52.869Z,42.00
2018-07-19T19:28:51.927Z,42.30
2018-07-19T19:31:22.510Z,43.30
2018-07-19T19:33:52.224Z,43.30
2018-07-19T19:36:21.977Z,42.40
2018-07-19T19:38:51.928Z,40.70
2018-07-19T19:41:21.654Z,42.30
2018-07-19T19:43:51.361Z,42.70
2018-07-19T19:46:21.604Z,43.80
2018-07-19T19:48:51.378Z,42.20
2018-07-19T19:51:24.126Z,42.00
2018-07-19T19:53:54.643Z,43.00
2018-07-19T19:56:24.326Z,42.80
2018-07-19T19:58:54.092Z,42.60
2018-07-19T20:01:23.855Z,42.60
2018-07-19T20:03:54.288Z,43.40
2018-07-19T20:08:53.333Z,42.10
2018-07-19T20:11:23.162Z,42.40
2018-07-19T20:13:52.925Z,43.80
2018-07-19T20:18:51.890Z,44.60
2018-07-19T20:21:21.660Z,44.40
2018-07-19T20:26:20.672Z,44.60
2018-07-19T20:28:50.502Z,43.60
2018-07-19T20:31:20.330Z,44.00
2018-07-19T20:33:50.049Z,44.90
2018-07-19T20:36:19.818Z,45.50
2018-07-19T20:38:49.647Z,43.90
2018-07-19T20:41:19.449Z,45.20
2018-07-19T20:43:49.424Z,45.00
2018-07-19T20:46:19.263Z,44.80
2018-07-19T20:48:52.919Z,44.00
2018-07-19T20:51:22.640Z,44.60
2018-07-19T20:53:53.013Z,45.30
2018-07-19T20:58:52.301Z,46.70
2018-07-19T21:03:57.246Z,45.40
2018-07-19T21:06:26.976Z,44.70
2018-07-19T21:08:56.659Z,45.00
2018-07-19T21:11:26.392Z,45.60
2018-07-19T21:13:56.103Z,45.60
2018-07-19T21:16:25.838Z,45.50
2018-07-19T21:18:55.649Z,46.10
2018-07-19T21:21:25.388Z,47.10
2018-07-19T21:23:55.119Z,47.50
2018-07-19T21:26:24.821Z,46.90
2018-07-19T21:28:54.530Z,47.90
2018-07-19T21:31:24.269Z,47.20
2018-07-19T21:33:53.961Z,47.70
2018-07-19T21:36:23.654Z,46.90
2018-07-19T21:38:53.377Z,47.30
2018-07-19T21:41:23.120Z,48.20
2018-07-19T21:43:52.846Z,49.50
2018-07-19T21:46:22.611Z,48.10
2018-07-19T21:48:52.314Z,48.10
2018-07-19T21:51:22.018Z,48.50
2018-07-19T21:53:51.748Z,49.00
2018-07-19T21:56:21.455Z,49.50
2018-07-19T21:58:51.256Z,49.20
2018-07-19T22:01:21.097Z,50.20
2018-07-19T22:03:50.872Z,50.20
2018-07-19T22:08:49.927Z,50.60
2018-07-19T22:11:19.638Z,50.10
2018-07-19T22:13:49.452Z,50.30
2018-07-19T22:16:19.130Z,51.30
2018-07-19T22:18:48.863Z,50.70
2018-07-19T22:21:18.598Z,51.00
2018-07-19T22:23:48.516Z,51.90
2018-07-19T22:26:18.537Z,52.90
2018-07-19T22:28:48.262Z,52.80
2018-07-19T22:33:47.751Z,52.70
2018-07-19T22:36:17.708Z,52.70
2018-07-19T22:38:47.583Z,53.20
2018-07-19T22:41:17.300Z,53.20
2018-07-19T22:46:16.641Z,53.60
2018-07-19T22:48:47.093Z,53.90
2018-07-19T22:51:17.486Z,54.80
2018-07-19T22:53:47.136Z,55.40
2018-07-19T22:58:46.858Z,56.60
2018-07-19T23:01:17.276Z,56.20
2018-07-19T23:03:47.069Z,56.50
2018-07-19T23:06:17.299Z,56.30
2018-07-19T23:08:47.648Z,56.60
2018-07-19T23:11:17.372Z,56.20
2018-07-19T23:13:47.322Z,56.50
2018-07-19T23:18:52.103Z,56.70
2018-07-19T23:21:21.833Z,56.90
2018-07-19T23:26:20.753Z,57.20
2018-07-19T23:31:19.880Z,57.30
2018-07-19T23:33:49.623Z,56.80
2018-07-19T23:36:23.873Z,58.00
2018-07-19T23:39:01.170Z,58.40
2018-07-19T23:41:52.879Z,58.20
2018-07-19T23:44:29.559Z,58.10
2018-07-19T23:47:03.200Z,57.90
2018-07-19T23:49:32.919Z,57.90
2018-07-19T23:52:02.608Z,57.90
2018-07-19T23:54:32.407Z,57.70
2018-07-19T23:57:02.124Z,58.10
